LFML/MRS METAR and TAF weather

Enter ICAO airport designator
Station Type Date Time Source
LFML METAR 2020/07/15 01:00 UTC NOAA

LFML 150100Z AUTO 31006KT CAVOK 21/13 Q1012 NOSIG


Station Type Date Time Source
LFML Decoded METAR 2020/07/15 01:00 UTC NOAA

Marseille / Marignane, France (LFML) 43-27N 005-14E 36M
Jul 14, 2020 - 09:00 PM EDT / 2020.07.15 0100 UTC
Wind: from the NW (310 degrees) at 7 MPH (6 KT):0
Visibility: greater than 7 mile(s):0
Temperature: 69 F (21 C)
Dew Point: 55 F (13 C)
Relative Humidity: 60%
Pressure (altimeter): 29.88 in. Hg (1012 hPa)
ob: LFML 150100Z AUTO 31006KT CAVOK 21/13 Q1012 NOSIG
cycle: 1

Station Type Date Time Source
LFML TAF 2020/07/14 21:24 UTC NOAA

TAF TAF LFML 142000Z 1421/1603 VRB03KT CAVOK TX29/1512Z TN20/1603Z
BECMG 1504/1506 33010KT
BECMG 1510/1512 26015KT
BECMG 1513/1515 26015G25KT
BECMG 1522/1524 32020G30KT

Example: see airport list